SIH weather

Silgadi Doti Airport
Silgadi Doti, Seti, Nepal

Public forecast

Using degrees Celsius for public forecast. Weather courtesy of forecast.io.

METAR (pilot weather report)

Report is more than 6 hours old.

Closest report is Pantnagar Airport, 77.9 nm (144.3 km) W. Retrieved 2019/09/17 04:30 UTC (21 hours ago):

VIPT 170430Z 11002KT 5000 BR FEW030 BKN100 29/25 Q1008

TAF (pilot weather forecast)

Forecast is more than 12 hours old.

Closest forecast is Pantnagar Airport, 77.9 nm (144.3 km) W. Retrieved 2016/07/10 06:00 UTC (3 years ago):

TAF VIPT 100500Z 1006/1015 24005KT 4000 HZ FEW040 SCT100 TEMPO 1010/1015 2000 -TSRA SCT030 FEW035CB BKN090